Time;durP1;ratioP1;P1;durP2;ratioP2;P2;SDS_P1;SDS_P2;PMS_P1;PMS_P2;Temp;Humidity;BMP_temperature;BMP_pressure;BME280_temperature;BME280_humidity;BME280_pressure;Samples;Min_cycle;Max_cycle;Signal;HPM_P1;HPM_P2
2023/09/05 00:00:10;;;;;;;3.55;1.70;;;;;;;16.25;87.20;94106.28;5085819;28;20040;-83
2023/09/05 00:02:39;;;;;;;6.82;2.33;;;;;;;16.18;87.72;94105.28;5085687;28;20024;-83
2023/09/05 00:05:07;;;;;;;6.47;2.25;;;;;;;16.08;88.48;94106.56;5085793;28;20224;-83
2023/09/05 00:07:36;;;;;;;4.63;2.20;;;;;;;16.04;88.85;94106.47;5085750;28;20017;-83
2023/09/05 00:10:07;;;;;;;4.65;2.40;;;;;;;16.05;88.87;94096.50;5085620;28;20020;-82
2023/09/05 00:12:34;;;;;;;3.67;2.30;;;;;;;16.09;89.15;94102.75;5085844;28;20017;-83
2023/09/05 00:15:00;;;;;;;2.80;1.85;;;;;;;16.08;89.17;94085.06;5067649;28;20219;-83
2023/09/05 00:17:26;;;;;;;4.55;1.95;;;;;;;16.08;89.31;94087.75;5085453;28;20103;-83
2023/09/05 00:19:51;;;;;;;3.40;2.10;;;;;;;16.15;88.92;94082.56;5085618;28;20021;-83
2023/09/05 00:22:20;;;;;;;7.43;2.20;;;;;;;16.21;89.02;94080.41;5067806;28;20020;-83
2023/09/05 00:24:45;;;;;;;1.58;1.15;;;;;;;16.22;88.40;94095.41;5085592;28;20013;-83
2023/09/05 00:27:12;;;;;;;2.03;1.42;;;;;;;16.23;86.31;94080.84;5067502;28;20234;-83
2023/09/05 00:29:39;;;;;;;3.63;1.23;;;;;;;16.23;86.56;94081.63;5085260;28;20073;-82
2023/09/05 00:32:05;;;;;;;2.45;1.40;;;;;;;16.25;86.52;94090.13;5085410;28;20028;-82
2023/09/05 00:34:33;;;;;;;3.28;1.40;;;;;;;16.25;86.14;94090.13;5067197;28;20070;-82
2023/09/05 00:37:03;;;;;;;2.92;1.58;;;;;;;16.29;85.24;94084.84;5067357;28;20307;-82
2023/09/05 00:39:30;;;;;;;2.00;1.35;;;;;;;16.31;84.85;94071.06;5085131;28;20354;-82
2023/09/05 00:41:56;;;;;;;2.40;1.50;;;;;;;16.32;85.04;94070.72;5085053;28;20044;-82
2023/09/05 00:44:25;;;;;;;4.43;1.55;;;;;;;16.31;84.53;94084.53;5085137;28;20036;-82
2023/09/05 00:46:52;;;;;;;2.40;1.50;;;;;;;16.32;84.99;94073.41;5085086;28;20016;-81
2023/09/05 00:49:22;;;;;;;2.60;1.50;;;;;;;16.33;84.44;94074.97;5067261;28;20058;-82
2023/09/05 00:51:50;;;;;;;2.00;1.30;;;;;;;16.35;83.71;94077.34;5085115;28;20066;-82
2023/09/05 00:54:17;;;;;;;2.53;1.58;;;;;;;16.36;84.60;94073.50;5085108;28;20028;-82
2023/09/05 00:56:45;;;;;;;2.88;1.73;;;;;;;16.37;83.99;94070.47;5084791;28;20020;-82
2023/09/05 00:59:11;;;;;;;2.53;1.70;;;;;;;16.39;83.83;94078.22;5084786;28;20031;-82
2023/09/05 01:01:37;;;;;;;3.70;1.77;;;;;;;16.39;83.83;94072.81;5066891;28;20024;-82
2023/09/05 01:04:03;;;;;;;2.60;1.70;;;;;;;16.39;83.35;94070.91;5066805;28;20245;-82
2023/09/05 01:06:31;;;;;;;5.38;1.50;;;;;;;16.43;83.35;94079.09;5084538;28;20048;-82
2023/09/05 01:09:03;;;;;;;2.38;1.38;;;;;;;16.45;83.22;94072.22;5084784;28;20024;-82
2023/09/05 01:11:29;;;;;;;4.65;1.80;;;;;;;16.41;81.98;94067.88;5066673;28;20052;-82
2023/09/05 01:13:54;;;;;;;2.70;1.60;;;;;;;16.38;82.44;94068.56;5066608;28;20126;-82
2023/09/05 01:16:20;;;;;;;2.53;1.45;;;;;;;16.34;82.63;94065.00;5066711;28;20051;-81
2023/09/05 01:18:46;;;;;;;4.57;1.80;;;;;;;16.31;82.71;94076.44;5084642;28;20028;-83
2023/09/05 01:21:39;;;;;;;2.17;1.45;;;;;;;16.19;82.97;94085.34;5083723;28;20048;-82
2023/09/05 01:24:11;;;;;;;;;;;;;;;16.17;83.15;94083.00;5065886;28;20017;-83
2023/09/05 01:26:38;;;;;;;3.63;1.75;;;;;;;16.12;83.35;94074.38;5083020;28;19904;-83
2023/09/05 01:29:05;;;;;;;3.38;1.88;;;;;;;16.11;83.97;94079.00;5065793;28;20031;-82
2023/09/05 01:31:32;;;;;;;3.47;1.92;;;;;;;16.09;84.18;94075.84;5084005;28;20032;-82
2023/09/05 01:33:58;;;;;;;3.22;1.52;;;;;;;16.08;83.89;94071.63;5084138;28;20275;-83
2023/09/05 01:36:23;;;;;;;4.47;2.03;;;;;;;16.09;84.17;94069.72;5084045;28;20032;-82
2023/09/05 01:38:49;;;;;;;5.38;1.80;;;;;;;16.07;83.88;94064.66;5066313;28;20277;-83
2023/09/05 01:41:14;;;;;;;2.75;1.77;;;;;;;16.09;83.59;94064.34;5084027;28;20095;-82
2023/09/05 01:43:39;;;;;;;2.53;1.70;;;;;;;16.07;83.41;94061.19;5066045;28;20032;-82
2023/09/05 01:46:05;;;;;;;3.28;2.17;;;;;;;16.03;83.82;94063.78;5083753;28;20028;-83
2023/09/05 01:48:30;;;;;;;3.83;1.92;;;;;;;16.00;84.00;94061.78;5083710;28;20025;-83
2023/09/05 01:50:56;;;;;;;4.43;2.30;;;;;;;15.96;83.89;94058.22;5066091;28;20024;-82
2023/09/05 01:53:21;;;;;;;3.05;2.28;;;;;;;15.84;84.53;94054.44;5065443;28;20024;-83
2023/09/05 01:55:46;;;;;;;4.13;1.98;;;;;;;15.86;84.75;94054.13;5083966;28;20303;-83
2023/09/05 01:58:12;;;;;;;4.22;2.50;;;;;;;15.83;84.78;94060.97;5083491;28;20027;-82
2023/09/05 02:00:37;;;;;;;3.80;2.55;;;;;;;15.81;84.96;94054.34;5083796;28;20016;-83
2023/09/05 02:03:03;;;;;;;4.10;2.88;;;;;;;15.78;84.60;94066.56;5065895;28;20337;-83
2023/09/05 02:05:28;;;;;;;5.68;3.20;;;;;;;15.77;84.95;94065.00;5065676;28;20024;-82
2023/09/05 02:07:56;;;;;;;3.72;2.70;;;;;;;15.76;85.19;94066.13;5083299;28;20016;-82
2023/09/05 02:10:21;;;;;;;5.82;3.33;;;;;;;15.76;84.88;94065.34;5083340;28;20055;-82
2023/09/05 02:12:46;;;;;;;7.68;3.60;;;;;;;15.74;84.58;94070.28;5082389;28;20044;-82
2023/09/05 02:15:12;;;;;;;5.32;3.53;;;;;;;15.66;84.86;94069.25;5083310;28;20032;-83
2023/09/05 02:17:37;;;;;;;8.95;4.10;;;;;;;15.66;85.32;94074.63;5065370;28;20235;-82
2023/09/05 02:20:03;;;;;;;5.65;4.13;;;;;;;15.71;85.09;94090.50;5083311;28;20196;-82
2023/09/05 02:22:29;;;;;;;5.80;3.90;;;;;;;15.70;85.20;94091.63;5083345;28;20216;-83
2023/09/05 02:24:54;;;;;;;5.95;4.40;;;;;;;15.66;85.39;94085.38;5082971;28;20163;-82
2023/09/05 02:27:20;;;;;;;7.18;4.65;;;;;;;15.70;85.28;94096.22;5083452;28;20057;-82
2023/09/05 02:29:49;;;;;;;7.40;4.93;;;;;;;15.66;85.42;94085.38;5083445;28;20025;-81
2023/09/05 02:32:17;;;;;;;6.07;4.47;;;;;;;15.68;85.39;94087.72;5065236;28;20195;-81
2023/09/05 02:34:43;;;;;;;7.32;4.50;;;;;;;15.70;85.42;94094.31;5065060;28;20029;-82
2023/09/05 02:37:08;;;;;;;7.20;4.45;;;;;;;15.68;85.54;94083.13;5083033;28;20025;-82
2023/09/05 02:39:33;;;;;;;6.78;4.55;;;;;;;15.68;85.44;94083.13;5083026;28;20058;-81
2023/09/05 02:41:59;;;;;;;8.13;5.05;;;;;;;15.67;85.33;94083.47;5065295;28;20016;-81
2023/09/05 02:44:24;;;;;;;8.82;5.38;;;;;;;15.66;85.66;94085.38;5065108;28;20020;-81
2023/09/05 02:46:51;;;;;;;7.55;4.95;;;;;;;15.71;85.48;94077.06;5082988;28;20217;-82
2023/09/05 02:49:16;;;;;;;7.63;5.38;;;;;;;15.71;85.42;94082.44;5082970;28;20306;-81
2023/09/05 02:51:42;;;;;;;6.85;4.78;;;;;;;15.71;85.17;94082.44;5082887;28;20027;-81
2023/09/05 02:54:07;;;;;;;7.10;5.10;;;;;;;15.73;85.09;94069.47;5082732;28;20024;-81
2023/09/05 02:56:33;;;;;;;6.57;5.03;;;;;;;15.76;85.03;94074.19;5065113;28;20036;-82
2023/09/05 02:58:58;;;;;;;7.90;5.10;;;;;;;15.78;84.67;94071.16;5065082;28;20021;-83
2023/09/05 03:01:24;;;;;;;8.93;5.35;;;;;;;15.81;84.26;94073.97;5064732;28;20052;-83
2023/09/05 03:03:49;;;;;;;7.47;5.00;;;;;;;15.85;83.71;94084.78;5065177;28;20111;-84
2023/09/05 03:06:15;;;;;;;7.50;5.30;;;;;;;15.89;83.99;94093.72;5084312;28;20344;-84
2023/09/05 03:08:44;;;;;;;9.65;5.93;;;;;;;15.94;83.88;94098.09;5087197;28;20087;-83
2023/09/05 03:11:09;;;;;;;9.45;5.72;;;;;;;15.93;83.97;94089.25;5086797;28;20356;-84
2023/09/05 03:13:35;;;;;;;11.80;6.13;;;;;;;16.00;83.64;94086.75;5069149;28;20044;-85
2023/09/05 03:16:00;;;;;;;8.65;5.43;;;;;;;15.99;82.71;94084.41;5086886;28;20023;-84
2023/09/05 03:18:26;;;;;;;12.48;5.93;;;;;;;16.01;83.04;94084.84;5069156;28;20020;-84
2023/09/05 03:20:51;;;;;;;7.20;5.63;;;;;;;16.06;82.89;94090.00;5068930;28;20421;-84
2023/09/05 03:23:17;;;;;;;9.07;6.05;;;;;;;16.05;82.84;94099.94;5086908;28;20012;-84
2023/09/05 03:25:42;;;;;;;8.60;5.90;;;;;;;16.05;82.21;94101.88;5086767;28;20319;-84
2023/09/05 03:28:14;;;;;;;7.70;5.60;;;;;;;16.09;82.34;94107.34;5068807;28;20035;-84
2023/09/05 03:30:40;;;;;;;;;;;;;;;16.12;82.17;94112.03;5087193;28;20235;-83
2023/09/05 03:33:06;;;;;;;9.65;5.88;;;;;;;16.11;82.30;94122.00;5086520;28;19904;-84
2023/09/05 03:35:32;;;;;;;8.13;6.13;;;;;;;16.14;82.64;94120.53;5068496;28;20032;-84
2023/09/05 03:37:57;;;;;;;7.95;5.65;;;;;;;16.14;82.50;94124.03;5086471;28;20028;-84
2023/09/05 03:40:23;;;;;;;9.20;6.20;;;;;;;16.17;82.59;94131.41;5068944;28;20031;-83
2023/09/05 03:42:48;;;;;;;13.15;6.43;;;;;;;16.21;82.57;94129.59;5086717;28;20329;-83
2023/09/05 03:45:14;;;;;;;9.25;6.18;;;;;;;16.23;82.59;94121.97;5068441;28;20377;-83
2023/09/05 03:47:40;;;;;;;13.60;6.85;;;;;;;16.23;82.14;94124.66;5086189;28;20179;-83
2023/09/05 03:50:06;;;;;;;11.63;6.63;;;;;;;16.20;82.10;94125.34;5086275;28;20079;-82
2023/09/05 03:52:32;;;;;;;9.75;6.78;;;;;;;16.22;82.18;94125.00;5086162;28;20016;-83
2023/09/05 03:54:58;;;;;;;8.77;5.72;;;;;;;16.25;81.83;94122.41;5085888;28;20070;-84
2023/09/05 03:57:23;;;;;;;8.60;5.85;;;;;;;16.28;82.19;94123.63;5086089;28;20089;-82
2023/09/05 03:59:48;;;;;;;8.15;6.00;;;;;;;16.31;82.37;94122.94;5068306;28;20024;-84
2023/09/05 04:02:14;;;;;;;10.35;5.90;;;;;;;16.31;83.24;94119.50;5086050;28;20020;-84
2023/09/05 04:04:39;;;;;;;10.68;6.20;;;;;;;16.32;83.29;94116.44;5068004;28;20095;-84
2023/09/05 04:07:06;;;;;;;11.48;6.60;;;;;;;16.31;83.00;94108.72;5086022;28;20382;-84
2023/09/05 04:09:32;;;;;;;9.57;6.35;;;;;;;16.33;82.75;94111.84;5085900;28;20014;-84
2023/09/05 04:11:57;;;;;;;12.10;6.95;;;;;;;16.32;82.80;94116.44;5085716;28;20040;-84
2023/09/05 04:14:22;;;;;;;10.48;6.97;;;;;;;16.29;83.02;94121.75;5084495;28;20023;-85
2023/09/05 04:16:48;;;;;;;10.05;6.32;;;;;;;16.27;82.62;94129.38;5067684;28;20016;-84
2023/09/05 04:19:13;;;;;;;9.70;6.75;;;;;;;16.29;81.84;94135.97;5085459;28;20024;-84
2023/09/05 04:21:39;;;;;;;8.25;6.30;;;;;;;16.27;82.09;94126.69;5084639;28;20047;-84
2023/09/05 04:24:05;;;;;;;16.88;7.10;;;;;;;16.22;82.43;94125.78;5085511;28;20461;-84
2023/09/05 04:26:33;;;;;;;10.75;6.65;;;;;;;16.13;82.41;94135.91;5085689;28;20039;-84
2023/09/05 04:28:58;;;;;;;12.27;6.88;;;;;;;16.05;82.99;94134.13;5067723;28;20089;-83
2023/09/05 04:31:24;;;;;;;12.38;7.55;;;;;;;16.08;83.84;94138.03;5067321;28;20020;-83
2023/09/05 04:33:50;;;;;;;11.20;8.10;;;;;;;16.14;83.97;94128.59;5085368;28;20029;-83
2023/09/05 04:36:15;;;;;;;14.07;7.60;;;;;;;16.16;83.27;94126.34;5085456;28;20024;-82
2023/09/05 04:38:44;;;;;;;11.02;8.20;;;;;;;16.17;82.46;94120.66;5085386;28;20024;-84
2023/09/05 04:41:10;;;;;;;12.73;8.52;;;;;;;16.23;82.26;94119.28;5085142;28;20024;-84
2023/09/05 04:43:35;;;;;;;13.98;8.02;;;;;;;16.28;82.94;94120.16;5085345;28;20203;-84
2023/09/05 04:46:03;;;;;;;12.65;8.95;;;;;;;16.29;83.33;94121.75;5085242;28;20048;-84
2023/09/05 04:48:29;;;;;;;12.30;9.13;;;;;;;16.33;82.78;94128.78;5085141;28;20020;-84
2023/09/05 04:50:54;;;;;;;12.80;8.82;;;;;;;16.34;83.12;94130.31;5067065;28;20071;-83
2023/09/05 04:53:20;;;;;;;14.63;8.85;;;;;;;16.41;83.17;94124.38;5085132;28;20024;-84
2023/09/05 04:55:47;;;;;;;15.93;9.82;;;;;;;16.42;82.81;94120.53;5085280;28;20165;-84
2023/09/05 04:58:13;;;;;;;13.40;8.30;;;;;;;16.46;82.62;94124.13;5084956;28;20257;-83
2023/09/05 05:00:39;;;;;;;12.65;8.63;;;;;;;16.51;83.16;94123.88;5067031;28;20021;-84
2023/09/05 05:03:05;;;;;;;13.00;8.60;;;;;;;16.49;82.32;94119.97;5084800;28;20048;-83
2023/09/05 05:05:30;;;;;;;16.00;9.10;;;;;;;16.53;82.43;94121.63;5083216;28;20023;-82
2023/09/05 05:07:56;;;;;;;14.13;9.40;;;;;;;16.55;82.44;94129.38;5082742;28;20322;-83
2023/09/05 05:10:21;;;;;;;16.00;10.25;;;;;;;16.68;82.63;94133.53;5082969;28;20037;-84
2023/09/05 05:12:47;;;;;;;14.05;9.07;;;;;;;16.72;82.21;94133.63;5064986;28;20016;-80
2023/09/05 05:15:13;;;;;;;13.18;9.30;;;;;;;16.77;81.61;94136.06;5064980;28;20051;-80
2023/09/05 05:17:39;;;;;;;13.95;9.45;;;;;;;16.80;81.28;94130.00;5082699;28;20023;-79
2023/09/05 05:20:05;;;;;;;13.93;9.25;;;;;;;16.79;81.12;94144.56;5083575;28;20047;-80
2023/09/05 05:22:31;;;;;;;14.80;8.32;;;;;;;16.82;80.99;94143.94;5064341;28;20024;-78
2023/09/05 05:24:57;;;;;;;11.88;9.18;;;;;;;16.92;80.47;94140.72;5080916;28;20066;-78
2023/09/05 05:27:23;;;;;;;12.70;8.90;;;;;;;16.97;80.71;94139.69;5081033;28;20035;-78
2023/09/05 05:29:48;;;;;;;15.30;9.27;;;;;;;17.01;79.52;94144.03;5080247;28;20028;-78
2023/09/05 05:32:13;;;;;;;18.85;9.13;;;;;;;17.01;79.63;94152.09;5080651;28;20079;-78
2023/09/05 05:34:39;;;;;;;14.25;8.05;;;;;;;17.05;79.43;94142.19;5080695;28;20048;-78
2023/09/05 05:37:04;;;;;;;16.95;9.05;;;;;;;17.01;78.62;94135.94;5082280;28;20027;-78
2023/09/05 05:39:29;;;;;;;14.60;9.10;;;;;;;17.06;78.49;94140.31;5083648;28;20016;-78
2023/09/05 05:41:55;;;;;;;11.30;8.68;;;;;;;17.14;78.32;94142.06;5083831;28;20302;-78
2023/09/05 05:44:21;;;;;;;13.82;9.00;;;;;;;17.04;78.92;94145.25;5082248;28;20083;-78
2023/09/05 05:46:46;;;;;;;16.88;9.88;;;;;;;17.06;79.00;94148.38;5082256;28;20054;-78
2023/09/05 05:49:11;;;;;;;20.50;10.10;;;;;;;17.08;78.96;94153.44;5082271;28;20016;-78
2023/09/05 05:51:37;;;;;;;14.23;10.00;;;;;;;17.12;78.99;94157.00;5082119;28;20448;-78
2023/09/05 05:54:03;;;;;;;16.50;10.63;;;;;;;17.03;79.57;94138.28;5081878;28;20028;-78
2023/09/05 05:56:29;;;;;;;16.50;9.55;;;;;;;17.07;79.85;94149.16;5064431;28;20035;-78
2023/09/05 05:58:55;;;;;;;16.33;9.65;;;;;;;17.15;80.30;94153.59;5082144;28;20211;-78
2023/09/05 06:01:20;;;;;;;16.90;10.85;;;;;;;17.20;80.13;94159.50;5065905;28;20037;-79
2023/09/05 06:03:46;;;;;;;19.70;10.35;;;;;;;17.27;79.19;94156.19;5083860;28;20028;-78
2023/09/05 06:06:12;;;;;;;19.80;11.93;;;;;;;17.27;78.33;94158.91;5083723;28;20063;-78
2023/09/05 06:08:38;;;;;;;28.85;11.00;;;;;;;17.16;78.62;94157.88;5065439;28;20052;-79
2023/09/05 06:11:03;;;;;;;17.05;10.30;;;;;;;17.16;78.89;94157.88;5083401;28;20241;-79
2023/09/05 06:13:29;;;;;;;15.73;9.85;;;;;;;17.12;78.43;94154.31;5082245;28;20036;-78
2023/09/05 06:15:56;;;;;;;17.95;10.32;;;;;;;17.15;78.68;94162.44;5083180;28;20048;-78
2023/09/05 06:18:22;;;;;;;12.40;9.70;;;;;;;17.21;78.10;94149.50;5083481;28;20087;-78
2023/09/05 06:20:47;;;;;;;15.35;10.52;;;;;;;17.01;78.80;94152.09;5083791;28;20025;-79
2023/09/05 06:23:13;;;;;;;15.95;11.65;;;;;;;17.13;79.17;94153.94;5083349;28;20051;-78
2023/09/05 06:25:39;;;;;;;15.32;10.95;;;;;;;17.15;78.73;94140.91;5083120;28;20027;-79
2023/09/05 06:28:05;;;;;;;14.80;10.25;;;;;;;17.17;79.01;94148.66;5083554;28;20020;-79
2023/09/05 06:30:30;;;;;;;14.63;10.32;;;;;;;17.29;77.70;94153.94;5083385;28;20016;-82
2023/09/05 06:32:56;;;;;;;17.52;10.77;;;;;;;17.33;77.58;94152.13;5083278;28;20016;-82
2023/09/05 06:35:21;;;;;;;20.08;10.65;;;;;;;17.16;77.85;94153.25;5081909;28;20321;-82
2023/09/05 06:37:51;;;;;;;15.63;10.25;;;;;;;17.02;78.52;94164.44;5083333;28;20039;-82
2023/09/05 06:40:18;;;;;;;23.63;12.07;;;;;;;17.11;78.27;94166.19;5083164;28;20027;-82
2023/09/05 06:42:44;;;;;;;22.13;11.52;;;;;;;17.15;78.49;94172.44;5065264;28;20023;-82
2023/09/05 06:45:10;;;;;;;14.50;10.30;;;;;;;17.23;78.30;94176.88;5082976;28;20020;-82
2023/09/05 06:47:36;;;;;;;25.77;12.18;;;;;;;17.17;78.65;94164.81;5083047;28;20016;-82
2023/09/05 06:50:04;;;;;;;18.42;10.60;;;;;;;17.15;78.66;94167.84;5083059;28;20016;-82
2023/09/05 06:52:31;;;;;;;20.20;10.73;;;;;;;17.19;78.48;94170.63;5082743;28;20215;-82
2023/09/05 06:54:56;;;;;;;15.50;10.00;;;;;;;17.10;78.20;94172.72;5082919;28;20017;-82
2023/09/05 06:57:21;;;;;;;14.27;10.75;;;;;;;17.00;78.50;94161.31;5082721;28;20023;-82
2023/09/05 06:59:50;;;;;;;15.23;10.38;;;;;;;17.21;78.73;94177.22;5082925;28;20047;-82
2023/09/05 07:02:15;;;;;;;21.15;10.73;;;;;;;17.34;78.07;94175.25;5083017;28;20096;-81
2023/09/05 07:04:41;;;;;;;19.20;9.93;;;;;;;17.45;77.43;94178.97;5064996;28;20013;-82
2023/09/05 07:07:08;;;;;;;18.60;9.35;;;;;;;17.58;77.21;94179.66;5082827;28;20107;-81
2023/09/05 07:09:34;;;;;;;14.48;9.95;;;;;;;17.69;76.94;94176.41;5082848;28;20062;-84
2023/09/05 07:12:00;;;;;;;16.20;9.35;;;;;;;17.81;75.96;94193.28;5082597;28;20040;-82
2023/09/05 07:14:25;;;;;;;19.77;9.48;;;;;;;17.90;75.35;94200.44;5081523;28;20025;-81
2023/09/05 07:16:51;;;;;;;10.90;8.80;;;;;;;17.90;75.02;94195.81;5082809;28;20055;-82
2023/09/05 07:19:29;;;;;;;15.98;8.80;;;;;;;17.87;75.12;94203.81;5082688;28;20028;-82
2023/09/05 07:21:54;;;;;;;16.27;9.05;;;;;;;17.86;74.85;94204.97;5082840;28;20021;-81
2023/09/05 07:24:19;;;;;;;11.35;8.82;;;;;;;17.80;75.16;94197.09;5064710;28;20330;-81
2023/09/05 07:26:45;;;;;;;21.48;9.68;;;;;;;17.81;75.17;94204.06;5082642;28;20038;-80
2023/09/05 07:29:12;;;;;;;14.40;9.05;;;;;;;17.80;75.15;94201.72;5082508;28;20035;-82
2023/09/05 07:31:42;;;;;;;18.63;9.10;;;;;;;17.85;75.03;94204.19;5064857;28;20016;-82
2023/09/05 07:34:57;;;;;;;13.88;9.73;;;;;;;17.91;75.13;94218.16;5082546;28;20074;-82
2023/09/05 07:37:23;;;;;;;12.75;8.20;;;;;;;17.84;75.14;94213.41;5082320;28;20024;-82
2023/09/05 07:39:50;;;;;;;19.80;9.45;;;;;;;17.86;75.16;94215.75;5081536;28;20025;-82
2023/09/05 07:42:16;;;;;;;11.68;8.90;;;;;;;17.86;75.64;94226.53;5082644;28;20035;-82
2023/09/05 07:44:41;;;;;;;16.13;9.75;;;;;;;17.88;75.59;94221.56;5064711;28;20048;-82
2023/09/05 07:47:07;;;;;;;15.02;9.13;;;;;;;17.83;76.03;94223.41;5064634;28;20056;-82
2023/09/05 07:49:42;;;;;;;17.73;9.73;;;;;;;17.77;76.28;94234.78;5082250;28;20021;-82
2023/09/05 07:52:08;;;;;;;22.73;10.43;;;;;;;17.75;76.58;94227.03;5083619;28;20086;-81
2023/09/05 07:54:35;;;;;;;21.98;9.15;;;;;;;17.77;76.41;94218.63;5086061;28;20017;-83
2023/09/05 07:57:03;;;;;;;20.50;9.73;;;;;;;17.84;75.92;94222.25;5085967;28;20012;-82
2023/09/05 07:59:29;;;;;;;16.25;8.95;;;;;;;17.82;76.07;94226.41;5068304;28;20025;-82
2023/09/05 08:01:57;;;;;;;17.85;10.45;;;;;;;17.73;76.29;94223.91;5086156;28;20066;-78
2023/09/05 08:04:23;;;;;;;20.70;8.98;;;;;;;17.82;76.39;94221.03;5085838;28;20211;-79
2023/09/05 08:06:49;;;;;;;15.75;9.52;;;;;;;17.93;76.77;94237.47;5085821;28;20027;-79
2023/09/05 08:09:14;;;;;;;14.73;8.98;;;;;;;18.07;75.78;94232.41;5085659;28;20021;-82
2023/09/05 08:11:40;;;;;;;22.65;8.48;;;;;;;18.09;75.19;94221.28;5067895;28;20082;-82
2023/09/05 08:14:06;;;;;;;25.50;8.27;;;;;;;18.13;74.61;94228.28;5085812;28;20036;-80
2023/09/05 08:16:31;;;;;;;17.55;7.25;;;;;;;18.15;73.92;94234.13;5067772;28;20199;-78
2023/09/05 08:18:56;;;;;;;12.77;7.40;;;;;;;18.18;73.16;94233.44;5085646;28;20318;-78
2023/09/05 08:21:22;;;;;;;16.92;8.70;;;;;;;18.30;72.65;94226.34;5085645;28;20027;-78
2023/09/05 08:23:50;;;;;;;10.45;7.65;;;;;;;18.36;72.37;94238.41;5085712;28;20013;-79
2023/09/05 08:26:16;;;;;;;16.67;7.80;;;;;;;18.46;73.19;94229.78;5085747;28;20066;-79
2023/09/05 08:28:44;;;;;;;23.17;8.18;;;;;;;18.56;72.23;94231.13;5085431;28;20016;-79
2023/09/05 08:31:15;;;;;;;10.90;8.10;;;;;;;18.74;71.67;94234.19;5085117;28;20032;-79
2023/09/05 08:33:40;;;;;;;18.45;7.53;;;;;;;18.88;71.39;94226.41;5085076;28;20268;-79
2023/09/05 08:36:08;;;;;;;13.60;7.63;;;;;;;18.92;70.47;94227.25;5085391;28;20024;-79
2023/09/05 08:38:34;;;;;;;14.68;7.70;;;;;;;19.03;69.87;94230.94;5085239;28;20020;-79
2023/09/05 08:41:03;;;;;;;16.40;8.52;;;;;;;19.15;69.60;94240.03;5085269;28;20087;-78
2023/09/05 08:43:28;;;;;;;13.32;7.68;;;;;;;18.92;69.31;94234.59;5066994;28;20024;-79
2023/09/05 08:45:55;;;;;;;19.17;7.45;;;;;;;19.11;69.45;94234.56;5084920;28;20027;-79
2023/09/05 08:48:20;;;;;;;17.10;6.82;;;;;;;19.28;69.68;94238.72;5085084;28;20020;-79
2023/09/05 08:50:46;;;;;;;18.05;8.05;;;;;;;19.41;69.00;94244.75;5085070;28;20338;-79
2023/09/05 08:53:15;;;;;;;17.20;7.90;;;;;;;19.38;68.88;94253.59;5084903;28;20020;-78
2023/09/05 08:55:42;;;;;;;12.68;7.72;;;;;;;19.44;68.35;94258.31;5085089;28;20024;-78
2023/09/05 08:58:13;;;;;;;20.80;7.55;;;;;;;19.50;67.93;94255.31;5084919;28;20016;-79
2023/09/05 09:00:39;;;;;;;13.65;6.88;;;;;;;19.53;67.86;94249.19;5084801;28;20020;-79
2023/09/05 09:03:06;;;;;;;11.00;7.13;;;;;;;19.57;68.11;94241.94;5084186;28;20204;-79
2023/09/05 09:05:32;;;;;;;13.50;7.10;;;;;;;19.59;67.50;94239.66;5066598;28;20222;-78
2023/09/05 09:07:58;;;;;;;12.13;6.43;;;;;;;19.61;66.95;94250.88;5084594;28;20074;-79
2023/09/05 09:10:23;;;;;;;16.45;7.30;;;;;;;19.65;66.79;94246.31;5084481;28;20048;-79
2023/09/05 09:12:55;;;;;;;16.73;8.95;;;;;;;19.67;66.91;94245.97;5067142;28;20074;-80
2023/09/05 09:15:25;;;;;;;13.35;7.90;;;;;;;19.70;66.76;94259.53;5084552;28;20024;-79
2023/09/05 09:17:52;;;;;;;11.77;7.20;;;;;;;19.72;66.59;94251.06;5084516;28;20085;-80
2023/09/05 09:20:19;;;;;;;20.65;7.35;;;;;;;19.71;66.31;94244.91;5084699;28;20028;-80
2023/09/05 09:22:49;;;;;;;9.95;6.78;;;;;;;19.68;65.72;94240.16;5084538;28;20310;-80
2023/09/05 09:25:27;;;;;;;10.88;6.72;;;;;;;19.60;66.15;94243.91;5084624;28;20020;-79
2023/09/05 09:27:53;;;;;;;16.45;7.28;;;;;;;19.64;67.17;94240.13;5084493;28;20024;-78
2023/09/05 09:30:27;;;;;;;10.80;6.65;;;;;;;19.62;67.38;94242.41;5066658;28;20082;-80
2023/09/05 09:32:54;;;;;;;15.48;6.28;;;;;;;19.56;68.24;94243.06;5066702;28;20032;-82
2023/09/05 09:35:20;;;;;;;12.43;7.03;;;;;;;19.54;66.65;94227.22;5084422;28;20298;-81
2023/09/05 09:37:47;;;;;;;15.32;6.47;;;;;;;19.50;65.84;94233.69;5066480;28;20017;-82
2023/09/05 09:40:16;;;;;;;10.23;6.28;;;;;;;19.44;65.46;94230.53;5084067;28;20032;-82
2023/09/05 09:42:45;;;;;;;7.75;5.50;;;;;;;19.42;65.68;94238.97;5084006;28;20200;-82
2023/09/05 09:45:11;;;;;;;9.95;6.25;;;;;;;19.48;65.44;94230.56;5066347;28;20039;-81
2023/09/05 09:47:45;;;;;;;10.07;5.75;;;;;;;19.54;65.96;94234.53;5066256;28;20299;-81
2023/09/05 09:50:12;;;;;;;18.15;5.32;;;;;;;19.58;65.02;94233.47;5066129;28;20033;-81
2023/09/05 09:52:43;;;;;;;12.48;5.25;;;;;;;19.60;63.01;94224.97;5083902;28;20020;-82
2023/09/05 09:55:12;;;;;;;7.45;4.70;;;;;;;19.59;62.21;94215.31;5083622;28;20110;-82
2023/09/05 09:57:45;;;;;;;9.25;4.45;;;;;;;19.69;61.49;94213.94;5065921;28;20066;-83
2023/09/05 10:00:15;;;;;;;11.55;4.40;;;;;;;19.83;60.31;94230.41;5065780;28;20190;-83
2023/09/05 10:02:45;;;;;;;9.80;4.30;;;;;;;19.97;60.50;94227.91;5083692;28;20216;-83
2023/09/05 10:05:12;;;;;;;6.38;3.75;;;;;;;20.05;58.84;94218.00;5065732;28;20078;-82
2023/09/05 10:07:38;;;;;;;10.73;4.03;;;;;;;20.12;58.20;94222.72;5083739;28;20206;-82
2023/09/05 10:10:04;;;;;;;10.55;3.85;;;;;;;20.22;57.79;94217.44;5083442;28;20329;-82
2023/09/05 10:12:31;;;;;;;26.05;4.03;;;;;;;20.31;57.52;94192.81;5083434;28;20027;-82
2023/09/05 10:15:02;;;;;;;5.82;3.50;;;;;;;20.20;57.07;94208.91;5082983;28;20027;-83
2023/09/05 10:17:31;;;;;;;6.07;3.50;;;;;;;20.29;56.96;94208.63;5083720;28;20245;-83
2023/09/05 10:19:58;;;;;;;7.90;3.30;;;;;;;20.42;56.17;94211.94;5083186;28;20024;-79
2023/09/05 10:22:24;;;;;;;6.13;3.33;;;;;;;20.51;55.42;94212.41;5083182;28;20188;-79
2023/09/05 10:24:51;;;;;;;12.75;3.83;;;;;;;20.64;55.98;94211.06;5083431;28;20043;-79
2023/09/05 10:27:17;;;;;;;17.08;4.10;;;;;;;20.64;54.82;94213.00;5083524;28;20013;-78
2023/09/05 10:29:43;;;;;;;10.10;3.17;;;;;;;20.66;54.03;94204.50;5083230;28;20227;-78
2023/09/05 10:32:20;;;;;;;10.00;3.10;;;;;;;20.48;53.97;94212.38;5083091;28;20020;-79
2023/09/05 10:34:50;;;;;;;13.02;3.67;;;;;;;20.50;54.82;94212.81;5065218;28;20327;-78
2023/09/05 10:37:21;;;;;;;10.30;3.13;;;;;;;20.49;53.84;94213.94;5083448;28;20061;-81
2023/09/05 10:39:47;;;;;;;7.15;2.75;;;;;;;20.60;53.24;94225.72;5065281;28;20029;-78
2023/09/05 10:42:14;;;;;;;8.05;2.80;;;;;;;20.60;53.02;94223.78;5083105;28;20032;-78
2023/09/05 10:44:46;;;;;;;5.45;2.72;;;;;;;20.71;53.13;94218.50;5082971;28;20038;-78
2023/09/05 10:47:29;;;;;;;9.93;3.28;;;;;;;20.71;52.58;94215.03;5082856;28;20357;-78
2023/09/05 10:49:58;;;;;;;4.43;2.75;;;;;;;20.72;53.61;94214.66;5082915;28;20027;-77
2023/09/05 10:52:27;;;;;;;14.52;2.88;;;;;;;20.66;54.05;94216.13;5083120;28;20020;-78
2023/09/05 10:54:53;;;;;;;8.20;4.22;;;;;;;20.67;53.59;94217.69;5082942;28;20074;-75
2023/09/05 10:57:40;;;;;;;5.22;2.75;;;;;;;20.84;52.56;94213.59;5083155;28;20039;-76
2023/09/05 11:00:15;;;;;;;16.52;4.65;;;;;;;20.77;52.23;94210.84;5064750;28;20016;-76
2023/09/05 11:02:42;;;;;;;6.75;2.83;;;;;;;20.80;52.14;94220.91;5082693;28;20036;-77
2023/09/05 11:05:12;;;;;;;6.47;3.13;;;;;;;20.55;52.44;94226.00;5082753;28;20083;-76
2023/09/05 11:07:42;;;;;;;8.70;2.88;;;;;;;20.71;52.91;94218.50;5082455;28;20203;-76
2023/09/05 11:10:24;;;;;;;5.05;3.35;;;;;;;20.79;52.85;94214.72;5082588;28;20267;-76
2023/09/05 11:12:50;;;;;;;6.82;3.08;;;;;;;20.79;52.19;94213.94;5082940;28;20327;-76
2023/09/05 11:15:31;;;;;;;8.85;3.28;;;;;;;20.36;52.97;94202.56;5064994;28;20058;-75
2023/09/05 11:18:01;;;;;;;8.52;3.10;;;;;;;20.49;53.19;94217.41;5082822;28;20078;-77
2023/09/05 11:20:47;;;;;;;7.00;3.38;;;;;;;20.64;53.19;94208.38;5082760;28;20028;-77
2023/09/05 11:23:16;;;;;;;10.50;3.15;;;;;;;20.60;53.20;94217.59;5082468;28;20350;-78
2023/09/05 11:25:47;;;;;;;5.78;3.08;;;;;;;20.76;53.41;94209.25;5082494;28;20337;-76
2023/09/05 11:28:14;;;;;;;10.63;2.83;;;;;;;21.02;51.20;94211.91;5085457;28;20035;-76